sensor_id;sensor_type;location;lat;lon;timestamp;P1;durP1;ratioP1;P2;durP2;ratioP2
81651;SDS011;71061;55.714;37.794;2023-09-12T00:02:07;29.60;;;18.02;;
81651;SDS011;71061;55.714;37.794;2023-09-12T00:04:35;30.23;;;19.02;;
81651;SDS011;71061;55.714;37.794;2023-09-12T00:07:01;32.17;;;17.40;;
81651;SDS011;71061;55.714;37.794;2023-09-12T00:09:27;33.80;;;17.05;;
81651;SDS011;71061;55.714;37.794;2023-09-12T00:11:53;32.25;;;17.88;;
81651;SDS011;71061;55.714;37.794;2023-09-12T00:14:20;31.85;;;17.65;;
81651;SDS011;71061;55.714;37.794;2023-09-12T00:16:46;36.25;;;18.92;;
81651;SDS011;71061;55.714;37.794;2023-09-12T00:19:12;30.58;;;17.67;;
81651;SDS011;71061;55.714;37.794;2023-09-12T00:21:38;32.05;;;17.58;;
81651;SDS011;71061;55.714;37.794;2023-09-12T00:24:03;38.60;;;19.25;;
81651;SDS011;71061;55.714;37.794;2023-09-12T00:26:29;30.17;;;16.77;;
81651;SDS011;71061;55.714;37.794;2023-09-12T00:28:56;28.80;;;17.63;;
81651;SDS011;71061;55.714;37.794;2023-09-12T00:31:22;34.20;;;19.02;;
81651;SDS011;71061;55.714;37.794;2023-09-12T00:33:48;33.95;;;18.73;;
81651;SDS011;71061;55.714;37.794;2023-09-12T00:36:13;32.78;;;18.75;;
81651;SDS011;71061;55.714;37.794;2023-09-12T00:38:39;29.58;;;17.90;;
81651;SDS011;71061;55.714;37.794;2023-09-12T00:41:04;34.90;;;21.13;;
81651;SDS011;71061;55.714;37.794;2023-09-12T00:43:30;35.70;;;20.23;;
81651;SDS011;71061;55.714;37.794;2023-09-12T00:45:56;36.63;;;18.63;;
81651;SDS011;71061;55.714;37.794;2023-09-12T00:48:22;32.42;;;18.55;;
81651;SDS011;71061;55.714;37.794;2023-09-12T00:50:49;35.17;;;18.90;;
81651;SDS011;71061;55.714;37.794;2023-09-12T00:53:16;36.45;;;18.88;;
81651;SDS011;71061;55.714;37.794;2023-09-12T00:55:45;36.38;;;20.02;;
81651;SDS011;71061;55.714;37.794;2023-09-12T00:58:14;35.38;;;19.05;;
81651;SDS011;71061;55.714;37.794;2023-09-12T01:00:41;33.85;;;19.17;;
81651;SDS011;71061;55.714;37.794;2023-09-12T01:03:06;35.58;;;20.15;;
81651;SDS011;71061;55.714;37.794;2023-09-12T01:05:33;36.92;;;21.73;;
81651;SDS011;71061;55.714;37.794;2023-09-12T01:07:59;38.28;;;21.63;;
81651;SDS011;71061;55.714;37.794;2023-09-12T01:10:25;36.25;;;21.90;;
81651;SDS011;71061;55.714;37.794;2023-09-12T01:12:52;35.65;;;20.83;;
81651;SDS011;71061;55.714;37.794;2023-09-12T01:15:18;40.85;;;21.35;;
81651;SDS011;71061;55.714;37.794;2023-09-12T01:17:44;34.47;;;20.60;;
81651;SDS011;71061;55.714;37.794;2023-09-12T01:20:19;36.78;;;20.10;;
81651;SDS011;71061;55.714;37.794;2023-09-12T01:22:55;42.03;;;22.13;;
81651;SDS011;71061;55.714;37.794;2023-09-12T01:28:25;38.50;;;19.52;;
81651;SDS011;71061;55.714;37.794;2023-09-12T01:30:56;36.47;;;18.98;;
81651;SDS011;71061;55.714;37.794;2023-09-12T01:33:24;40.17;;;20.77;;
81651;SDS011;71061;55.714;37.794;2023-09-12T01:35:50;39.88;;;19.85;;
81651;SDS011;71061;55.714;37.794;2023-09-12T01:38:15;39.65;;;19.40;;
81651;SDS011;71061;55.714;37.794;2023-09-12T01:40:43;37.90;;;19.85;;
81651;SDS011;71061;55.714;37.794;2023-09-12T01:43:11;38.85;;;19.77;;
81651;SDS011;71061;55.714;37.794;2023-09-12T01:45:40;35.95;;;20.35;;
81651;SDS011;71061;55.714;37.794;2023-09-12T01:48:06;38.70;;;18.17;;
81651;SDS011;71061;55.714;37.794;2023-09-12T01:50:32;38.38;;;19.13;;
81651;SDS011;71061;55.714;37.794;2023-09-12T01:52:58;36.28;;;19.42;;
81651;SDS011;71061;55.714;37.794;2023-09-12T01:55:24;36.40;;;19.77;;
81651;SDS011;71061;55.714;37.794;2023-09-12T01:57:50;35.72;;;19.80;;
81651;SDS011;71061;55.714;37.794;2023-09-12T02:00:17;38.85;;;18.63;;
81651;SDS011;71061;55.714;37.794;2023-09-12T02:02:44;36.97;;;18.00;;
81651;SDS011;71061;55.714;37.794;2023-09-12T02:05:14;37.08;;;19.30;;
81651;SDS011;71061;55.714;37.794;2023-09-12T02:07:44;39.33;;;19.85;;
81651;SDS011;71061;55.714;37.794;2023-09-12T02:10:10;35.50;;;19.17;;
81651;SDS011;71061;55.714;37.794;2023-09-12T02:12:36;35.90;;;17.90;;
81651;SDS011;71061;55.714;37.794;2023-09-12T02:15:03;37.95;;;19.83;;
81651;SDS011;71061;55.714;37.794;2023-09-12T02:17:31;39.38;;;18.75;;
81651;SDS011;71061;55.714;37.794;2023-09-12T02:20:17;38.97;;;20.75;;
81651;SDS011;71061;55.714;37.794;2023-09-12T02:22:43;36.70;;;21.77;;
81651;SDS011;71061;55.714;37.794;2023-09-12T02:25:08;40.28;;;23.35;;
81651;SDS011;71061;55.714;37.794;2023-09-12T02:27:34;40.40;;;22.33;;
81651;SDS011;71061;55.714;37.794;2023-09-12T02:30:00;34.90;;;21.60;;
81651;SDS011;71061;55.714;37.794;2023-09-12T02:32:25;43.60;;;21.65;;
81651;SDS011;71061;55.714;37.794;2023-09-12T02:34:51;40.22;;;23.33;;
81651;SDS011;71061;55.714;37.794;2023-09-12T02:37:18;38.55;;;22.10;;
81651;SDS011;71061;55.714;37.794;2023-09-12T02:39:44;40.05;;;20.88;;
81651;SDS011;71061;55.714;37.794;2023-09-12T02:42:10;37.22;;;19.45;;
81651;SDS011;71061;55.714;37.794;2023-09-12T02:44:35;31.83;;;17.13;;
81651;SDS011;71061;55.714;37.794;2023-09-12T02:47:03;34.67;;;19.08;;
81651;SDS011;71061;55.714;37.794;2023-09-12T02:49:30;34.58;;;18.63;;
81651;SDS011;71061;55.714;37.794;2023-09-12T02:51:56;37.67;;;20.10;;
81651;SDS011;71061;55.714;37.794;2023-09-12T02:54:21;34.20;;;18.23;;
81651;SDS011;71061;55.714;37.794;2023-09-12T02:56:47;32.80;;;18.80;;
81651;SDS011;71061;55.714;37.794;2023-09-12T02:59:13;36.03;;;19.08;;
81651;SDS011;71061;55.714;37.794;2023-09-12T03:01:39;36.95;;;19.00;;
81651;SDS011;71061;55.714;37.794;2023-09-12T03:04:04;38.55;;;19.10;;
81651;SDS011;71061;55.714;37.794;2023-09-12T03:06:30;36.83;;;20.33;;
81651;SDS011;71061;55.714;37.794;2023-09-12T03:08:57;34.97;;;19.08;;
81651;SDS011;71061;55.714;37.794;2023-09-12T03:11:22;38.20;;;19.17;;
81651;SDS011;71061;55.714;37.794;2023-09-12T03:13:50;37.92;;;18.95;;
81651;SDS011;71061;55.714;37.794;2023-09-12T03:16:16;37.25;;;20.05;;
81651;SDS011;71061;55.714;37.794;2023-09-12T03:18:42;34.50;;;20.40;;
81651;SDS011;71061;55.714;37.794;2023-09-12T03:21:07;38.70;;;19.42;;
81651;SDS011;71061;55.714;37.794;2023-09-12T03:23:33;39.50;;;20.75;;
81651;SDS011;71061;55.714;37.794;2023-09-12T03:26:02;39.80;;;20.00;;
81651;SDS011;71061;55.714;37.794;2023-09-12T03:28:29;37.92;;;19.45;;
81651;SDS011;71061;55.714;37.794;2023-09-12T03:31:12;40.35;;;19.88;;
81651;SDS011;71061;55.714;37.794;2023-09-12T03:33:41;38.95;;;20.70;;
81651;SDS011;71061;55.714;37.794;2023-09-12T03:36:07;34.33;;;19.33;;
81651;SDS011;71061;55.714;37.794;2023-09-12T03:38:34;34.42;;;19.38;;
81651;SDS011;71061;55.714;37.794;2023-09-12T03:41:00;41.22;;;19.58;;
81651;SDS011;71061;55.714;37.794;2023-09-12T03:43:27;35.75;;;19.50;;
81651;SDS011;71061;55.714;37.794;2023-09-12T03:45:53;37.40;;;19.45;;
81651;SDS011;71061;55.714;37.794;2023-09-12T03:48:19;36.05;;;20.00;;
81651;SDS011;71061;55.714;37.794;2023-09-12T03:50:45;37.03;;;20.08;;
81651;SDS011;71061;55.714;37.794;2023-09-12T03:53:13;36.25;;;18.65;;
81651;SDS011;71061;55.714;37.794;2023-09-12T03:55:39;39.63;;;20.45;;
81651;SDS011;71061;55.714;37.794;2023-09-12T03:58:04;34.05;;;19.95;;
81651;SDS011;71061;55.714;37.794;2023-09-12T04:00:30;36.80;;;20.63;;
81651;SDS011;71061;55.714;37.794;2023-09-12T04:02:56;36.60;;;20.42;;
81651;SDS011;71061;55.714;37.794;2023-09-12T04:05:22;37.80;;;18.50;;
81651;SDS011;71061;55.714;37.794;2023-09-12T04:07:48;41.53;;;19.48;;
81651;SDS011;71061;55.714;37.794;2023-09-12T04:10:14;31.08;;;18.52;;
81651;SDS011;71061;55.714;37.794;2023-09-12T04:12:40;39.55;;;19.23;;
81651;SDS011;71061;55.714;37.794;2023-09-12T04:15:06;34.85;;;19.60;;
81651;SDS011;71061;55.714;37.794;2023-09-12T04:17:32;34.72;;;19.33;;
81651;SDS011;71061;55.714;37.794;2023-09-12T04:19:57;32.22;;;19.67;;
81651;SDS011;71061;55.714;37.794;2023-09-12T04:22:23;35.05;;;18.75;;
81651;SDS011;71061;55.714;37.794;2023-09-12T04:24:49;35.05;;;19.33;;
81651;SDS011;71061;55.714;37.794;2023-09-12T04:27:15;41.65;;;22.45;;
81651;SDS011;71061;55.714;37.794;2023-09-12T04:29:41;34.75;;;19.48;;
81651;SDS011;71061;55.714;37.794;2023-09-12T04:32:07;31.90;;;17.88;;
81651;SDS011;71061;55.714;37.794;2023-09-12T04:34:33;35.13;;;19.83;;
81651;SDS011;71061;55.714;37.794;2023-09-12T04:36:58;36.38;;;20.00;;
81651;SDS011;71061;55.714;37.794;2023-09-12T04:39:25;37.95;;;20.40;;
81651;SDS011;71061;55.714;37.794;2023-09-12T04:41:51;34.92;;;19.05;;
81651;SDS011;71061;55.714;37.794;2023-09-12T04:44:17;35.28;;;18.75;;
81651;SDS011;71061;55.714;37.794;2023-09-12T04:46:43;32.25;;;18.10;;
81651;SDS011;71061;55.714;37.794;2023-09-12T04:49:08;36.25;;;17.80;;
81651;SDS011;71061;55.714;37.794;2023-09-12T04:51:34;35.08;;;18.02;;
81651;SDS011;71061;55.714;37.794;2023-09-12T04:54:00;28.25;;;17.98;;
81651;SDS011;71061;55.714;37.794;2023-09-12T04:56:26;30.30;;;16.65;;
81651;SDS011;71061;55.714;37.794;2023-09-12T04:58:52;30.65;;;16.42;;
81651;SDS011;71061;55.714;37.794;2023-09-12T05:01:18;34.92;;;18.75;;
81651;SDS011;71061;55.714;37.794;2023-09-12T05:03:44;34.47;;;18.00;;
81651;SDS011;71061;55.714;37.794;2023-09-12T05:06:10;28.88;;;17.10;;
81651;SDS011;71061;55.714;37.794;2023-09-12T05:08:36;28.88;;;17.63;;
81651;SDS011;71061;55.714;37.794;2023-09-12T05:11:02;29.75;;;18.25;;
81651;SDS011;71061;55.714;37.794;2023-09-12T05:13:28;29.83;;;19.23;;
81651;SDS011;71061;55.714;37.794;2023-09-12T05:15:58;31.65;;;18.60;;
81651;SDS011;71061;55.714;37.794;2023-09-12T05:18:24;34.10;;;19.33;;
81651;SDS011;71061;55.714;37.794;2023-09-12T05:20:50;30.77;;;18.80;;
81651;SDS011;71061;55.714;37.794;2023-09-12T05:23:15;32.15;;;20.60;;
81651;SDS011;71061;55.714;37.794;2023-09-12T05:25:41;34.75;;;21.13;;
81651;SDS011;71061;55.714;37.794;2023-09-12T05:28:08;30.35;;;20.35;;
81651;SDS011;71061;55.714;37.794;2023-09-12T05:30:33;30.85;;;20.30;;
81651;SDS011;71061;55.714;37.794;2023-09-12T05:33:00;29.13;;;18.92;;
81651;SDS011;71061;55.714;37.794;2023-09-12T05:35:25;30.50;;;19.20;;
81651;SDS011;71061;55.714;37.794;2023-09-12T05:37:52;33.35;;;20.67;;
81651;SDS011;71061;55.714;37.794;2023-09-12T05:40:19;32.05;;;19.30;;
81651;SDS011;71061;55.714;37.794;2023-09-12T05:42:45;30.00;;;20.35;;
81651;SDS011;71061;55.714;37.794;2023-09-12T05:45:11;30.70;;;19.58;;
81651;SDS011;71061;55.714;37.794;2023-09-12T05:47:38;30.65;;;20.05;;
81651;SDS011;71061;55.714;37.794;2023-09-12T05:50:03;32.45;;;19.45;;
81651;SDS011;71061;55.714;37.794;2023-09-12T05:52:32;33.40;;;20.52;;
81651;SDS011;71061;55.714;37.794;2023-09-12T05:54:58;35.40;;;20.52;;
81651;SDS011;71061;55.714;37.794;2023-09-12T05:57:24;33.90;;;22.35;;
81651;SDS011;71061;55.714;37.794;2023-09-12T05:59:50;33.05;;;21.75;;
81651;SDS011;71061;55.714;37.794;2023-09-12T06:02:16;32.08;;;21.33;;
81651;SDS011;71061;55.714;37.794;2023-09-12T06:04:43;36.95;;;22.35;;
81651;SDS011;71061;55.714;37.794;2023-09-12T06:07:09;37.47;;;21.75;;
81651;SDS011;71061;55.714;37.794;2023-09-12T06:09:34;29.90;;;21.42;;
81651;SDS011;71061;55.714;37.794;2023-09-12T06:12:00;33.42;;;19.52;;
81651;SDS011;71061;55.714;37.794;2023-09-12T06:14:26;32.53;;;19.27;;
81651;SDS011;71061;55.714;37.794;2023-09-12T06:16:52;31.10;;;21.15;;
81651;SDS011;71061;55.714;37.794;2023-09-12T06:19:19;33.00;;;19.90;;
81651;SDS011;71061;55.714;37.794;2023-09-12T06:21:45;31.08;;;21.00;;
81651;SDS011;71061;55.714;37.794;2023-09-12T06:24:13;33.13;;;19.73;;
81651;SDS011;71061;55.714;37.794;2023-09-12T06:26:40;31.33;;;18.67;;
81651;SDS011;71061;55.714;37.794;2023-09-12T06:29:05;29.35;;;18.38;;
81651;SDS011;71061;55.714;37.794;2023-09-12T06:31:31;35.40;;;18.80;;
81651;SDS011;71061;55.714;37.794;2023-09-12T06:33:57;27.80;;;17.80;;
81651;SDS011;71061;55.714;37.794;2023-09-12T06:36:24;29.85;;;18.98;;
81651;SDS011;71061;55.714;37.794;2023-09-12T06:38:50;31.92;;;18.33;;
81651;SDS011;71061;55.714;37.794;2023-09-12T06:41:20;32.88;;;19.30;;
81651;SDS011;71061;55.714;37.794;2023-09-12T06:43:45;27.67;;;18.00;;
81651;SDS011;71061;55.714;37.794;2023-09-12T06:46:11;34.15;;;17.90;;
81651;SDS011;71061;55.714;37.794;2023-09-12T06:48:37;31.42;;;18.88;;
81651;SDS011;71061;55.714;37.794;2023-09-12T06:51:07;30.60;;;17.67;;
81651;SDS011;71061;55.714;37.794;2023-09-12T06:53:34;27.08;;;17.55;;
81651;SDS011;71061;55.714;37.794;2023-09-12T06:55:59;25.85;;;15.68;;
81651;SDS011;71061;55.714;37.794;2023-09-12T06:58:25;26.83;;;16.55;;
81651;SDS011;71061;55.714;37.794;2023-09-12T07:00:51;27.20;;;15.07;;
81651;SDS011;71061;55.714;37.794;2023-09-12T07:03:17;25.83;;;15.90;;
81651;SDS011;71061;55.714;37.794;2023-09-12T07:05:43;30.73;;;18.70;;
81651;SDS011;71061;55.714;37.794;2023-09-12T07:08:09;32.20;;;16.77;;
81651;SDS011;71061;55.714;37.794;2023-09-12T07:10:35;28.50;;;16.83;;
81651;SDS011;71061;55.714;37.794;2023-09-12T07:13:01;29.23;;;18.10;;
81651;SDS011;71061;55.714;37.794;2023-09-12T07:15:27;30.98;;;15.45;;
81651;SDS011;71061;55.714;37.794;2023-09-12T07:17:53;28.45;;;16.10;;
81651;SDS011;71061;55.714;37.794;2023-09-12T07:20:19;32.38;;;17.75;;
81651;SDS011;71061;55.714;37.794;2023-09-12T07:22:45;29.55;;;17.92;;
81651;SDS011;71061;55.714;37.794;2023-09-12T07:25:12;33.13;;;17.88;;
81651;SDS011;71061;55.714;37.794;2023-09-12T07:27:39;28.65;;;16.73;;
81651;SDS011;71061;55.714;37.794;2023-09-12T07:30:05;26.52;;;16.52;;
81651;SDS011;71061;55.714;37.794;2023-09-12T07:32:32;29.95;;;17.25;;
81651;SDS011;71061;55.714;37.794;2023-09-12T07:34:57;30.55;;;17.70;;
81651;SDS011;71061;55.714;37.794;2023-09-12T07:37:23;31.27;;;18.17;;
81651;SDS011;71061;55.714;37.794;2023-09-12T07:39:49;28.38;;;18.00;;
81651;SDS011;71061;55.714;37.794;2023-09-12T07:42:15;28.75;;;18.58;;
81651;SDS011;71061;55.714;37.794;2023-09-12T07:44:40;28.60;;;17.63;;
81651;SDS011;71061;55.714;37.794;2023-09-12T07:47:06;30.67;;;17.58;;
81651;SDS011;71061;55.714;37.794;2023-09-12T07:49:32;30.65;;;17.77;;
81651;SDS011;71061;55.714;37.794;2023-09-12T07:51:58;31.08;;;18.33;;
81651;SDS011;71061;55.714;37.794;2023-09-12T07:54:24;31.55;;;17.33;;
81651;SDS011;71061;55.714;37.794;2023-09-12T07:56:49;32.80;;;18.33;;
81651;SDS011;71061;55.714;37.794;2023-09-12T07:59:15;30.67;;;16.45;;
81651;SDS011;71061;55.714;37.794;2023-09-12T08:01:41;30.17;;;19.00;;
81651;SDS011;71061;55.714;37.794;2023-09-12T08:04:07;39.50;;;22.42;;
81651;SDS011;71061;55.714;37.794;2023-09-12T08:06:32;35.25;;;17.15;;
81651;SDS011;71061;55.714;37.794;2023-09-12T08:08:58;30.58;;;18.35;;
81651;SDS011;71061;55.714;37.794;2023-09-12T08:11:24;27.58;;;18.50;;
81651;SDS011;71061;55.714;37.794;2023-09-12T08:13:50;28.70;;;17.45;;
81651;SDS011;71061;55.714;37.794;2023-09-12T08:16:16;27.63;;;17.33;;
81651;SDS011;71061;55.714;37.794;2023-09-12T08:18:41;29.13;;;16.42;;
81651;SDS011;71061;55.714;37.794;2023-09-12T08:21:07;25.77;;;15.73;;
81651;SDS011;71061;55.714;37.794;2023-09-12T08:23:33;25.17;;;15.90;;
81651;SDS011;71061;55.714;37.794;2023-09-12T08:25:59;30.45;;;16.83;;
81651;SDS011;71061;55.714;37.794;2023-09-12T08:28:25;25.38;;;14.38;;
81651;SDS011;71061;55.714;37.794;2023-09-12T08:30:51;28.55;;;14.32;;
81651;SDS011;71061;55.714;37.794;2023-09-12T08:33:16;26.17;;;12.73;;
81651;SDS011;71061;55.714;37.794;2023-09-12T08:35:42;25.15;;;14.13;;
81651;SDS011;71061;55.714;37.794;2023-09-12T08:38:08;24.38;;;12.30;;
81651;SDS011;71061;55.714;37.794;2023-09-12T08:40:34;19.70;;;12.02;;
81651;SDS011;71061;55.714;37.794;2023-09-12T08:43:01;19.35;;;10.18;;
81651;SDS011;71061;55.714;37.794;2023-09-12T08:45:29;18.88;;;10.80;;
81651;SDS011;71061;55.714;37.794;2023-09-12T08:47:56;17.50;;;10.43;;
81651;SDS011;71061;55.714;37.794;2023-09-12T08:50:24;14.60;;;8.27;;
81651;SDS011;71061;55.714;37.794;2023-09-12T08:52:50;14.10;;;8.23;;
81651;SDS011;71061;55.714;37.794;2023-09-12T08:55:16;15.48;;;8.02;;
81651;SDS011;71061;55.714;37.794;2023-09-12T08:57:42;17.95;;;10.32;;
81651;SDS011;71061;55.714;37.794;2023-09-12T09:00:09;14.88;;;9.05;;
81651;SDS011;71061;55.714;37.794;2023-09-12T09:02:39;13.55;;;8.77;;
81651;SDS011;71061;55.714;37.794;2023-09-12T09:05:06;12.52;;;7.82;;
81651;SDS011;71061;55.714;37.794;2023-09-12T09:07:33;10.45;;;6.45;;
81651;SDS011;71061;55.714;37.794;2023-09-12T09:10:01;11.77;;;6.65;;
81651;SDS011;71061;55.714;37.794;2023-09-12T09:14:55;9.55;;;5.85;;
81651;SDS011;71061;55.714;37.794;2023-09-12T09:17:21;11.48;;;6.03;;
81651;SDS011;71061;55.714;37.794;2023-09-12T09:19:47;10.70;;;6.47;;
81651;SDS011;71061;55.714;37.794;2023-09-12T09:22:13;9.38;;;5.78;;
81651;SDS011;71061;55.714;37.794;2023-09-12T09:24:38;9.10;;;5.50;;
81651;SDS011;71061;55.714;37.794;2023-09-12T09:27:04;13.15;;;6.18;;
81651;SDS011;71061;55.714;37.794;2023-09-12T09:29:30;7.05;;;4.72;;
81651;SDS011;71061;55.714;37.794;2023-09-12T09:31:59;9.35;;;5.78;;
81651;SDS011;71061;55.714;37.794;2023-09-12T09:34:25;10.93;;;6.63;;
81651;SDS011;71061;55.714;37.794;2023-09-12T09:36:55;10.90;;;6.47;;
81651;SDS011;71061;55.714;37.794;2023-09-12T09:39:23;11.52;;;5.68;;
81651;SDS011;71061;55.714;37.794;2023-09-12T09:41:50;11.10;;;5.50;;
81651;SDS011;71061;55.714;37.794;2023-09-12T09:44:17;9.63;;;5.05;;
81651;SDS011;71061;55.714;37.794;2023-09-12T09:46:43;7.28;;;3.75;;
81651;SDS011;71061;55.714;37.794;2023-09-12T09:49:10;9.45;;;4.13;;
81651;SDS011;71061;55.714;37.794;2023-09-12T09:51:44;7.68;;;4.07;;
81651;SDS011;71061;55.714;37.794;2023-09-12T09:54:10;10.20;;;4.70;;
81651;SDS011;71061;55.714;37.794;2023-09-12T09:59:23;9.25;;;5.30;;
81651;SDS011;71061;55.714;37.794;2023-09-12T10:01:50;10.77;;;5.88;;
81651;SDS011;71061;55.714;37.794;2023-09-12T10:04:20;10.73;;;5.43;;
81651;SDS011;71061;55.714;37.794;2023-09-12T10:06:46;9.70;;;5.15;;
81651;SDS011;71061;55.714;37.794;2023-09-12T10:09:12;10.10;;;4.90;;
81651;SDS011;71061;55.714;37.794;2023-09-12T10:11:40;9.82;;;5.40;;
81651;SDS011;71061;55.714;37.794;2023-09-12T10:14:07;9.02;;;5.43;;
81651;SDS011;71061;55.714;37.794;2023-09-12T10:16:33;8.50;;;4.63;;
81651;SDS011;71061;55.714;37.794;2023-09-12T10:19:11;9.63;;;4.93;;
81651;SDS011;71061;55.714;37.794;2023-09-12T10:21:48;11.30;;;5.63;;
81651;SDS011;71061;55.714;37.794;2023-09-12T10:24:15;9.18;;;5.38;;
81651;SDS011;71061;55.714;37.794;2023-09-12T10:26:43;12.55;;;6.88;;
81651;SDS011;71061;55.714;37.794;2023-09-12T10:29:12;9.57;;;5.50;;
81651;SDS011;71061;55.714;37.794;2023-09-12T10:31:39;12.80;;;5.32;;
81651;SDS011;71061;55.714;37.794;2023-09-12T10:34:05;9.38;;;5.50;;
81651;SDS011;71061;55.714;37.794;2023-09-12T10:36:34;7.90;;;4.88;;
81651;SDS011;71061;55.714;37.794;2023-09-12T10:39:02;10.98;;;4.95;;
81651;SDS011;71061;55.714;37.794;2023-09-12T10:41:30;7.70;;;5.03;;
81651;SDS011;71061;55.714;37.794;2023-09-12T10:43:56;11.25;;;5.53;;
81651;SDS011;71061;55.714;37.794;2023-09-12T10:46:23;11.73;;;5.95;;
81651;SDS011;71061;55.714;37.794;2023-09-12T10:48:49;10.35;;;6.25;;
81651;SDS011;71061;55.714;37.794;2023-09-12T10:51:15;8.50;;;4.85;;
81651;SDS011;71061;55.714;37.794;2023-09-12T10:53:46;9.20;;;5.07;;
81651;SDS011;71061;55.714;37.794;2023-09-12T10:56:18;9.15;;;5.10;;
81651;SDS011;71061;55.714;37.794;2023-09-12T11:01:42;12.98;;;6.40;;
81651;SDS011;71061;55.714;37.794;2023-09-12T11:06:55;11.88;;;6.55;;
81651;SDS011;71061;55.714;37.794;2023-09-12T11:09:22;13.63;;;6.95;;
81651;SDS011;71061;55.714;37.794;2023-09-12T11:11:54;11.48;;;5.47;;
81651;SDS011;71061;55.714;37.794;2023-09-12T11:14:34;11.32;;;6.03;;
81651;SDS011;71061;55.714;37.794;2023-09-12T11:19:46;11.40;;;6.07;;
81651;SDS011;71061;55.714;37.794;2023-09-12T11:22:30;9.98;;;5.65;;
81651;SDS011;71061;55.714;37.794;2023-09-12T11:24:57;10.23;;;7.50;;
81651;SDS011;71061;55.714;37.794;2023-09-12T11:27:32;8.70;;;5.28;;
81651;SDS011;71061;55.714;37.794;2023-09-12T11:30:09;9.40;;;5.38;;
81651;SDS011;71061;55.714;37.794;2023-09-12T11:32:36;9.57;;;5.18;;
81651;SDS011;71061;55.714;37.794;2023-09-12T11:35:06;12.40;;;5.88;;
81651;SDS011;71061;55.714;37.794;2023-09-12T11:37:33;8.48;;;5.20;;
81651;SDS011;71061;55.714;37.794;2023-09-12T11:40:00;11.90;;;5.63;;
81651;SDS011;71061;55.714;37.794;2023-09-12T11:42:26;10.20;;;4.97;;
81651;SDS011;71061;55.714;37.794;2023-09-12T11:44:52;9.68;;;5.25;;
81651;SDS011;71061;55.714;37.794;2023-09-12T11:47:18;8.48;;;4.85;;
81651;SDS011;71061;55.714;37.794;2023-09-12T11:49:43;10.10;;;5.57;;
81651;SDS011;71061;55.714;37.794;2023-09-12T11:52:10;8.30;;;4.35;;
81651;SDS011;71061;55.714;37.794;2023-09-12T11:54:38;8.60;;;5.07;;
81651;SDS011;71061;55.714;37.794;2023-09-12T11:57:05;7.95;;;4.10;;
81651;SDS011;71061;55.714;37.794;2023-09-12T11:59:36;7.35;;;4.00;;
81651;SDS011;71061;55.714;37.794;2023-09-12T12:02:05;8.77;;;4.45;;
81651;SDS011;71061;55.714;37.794;2023-09-12T12:04:32;9.23;;;4.82;;
81651;SDS011;71061;55.714;37.794;2023-09-12T12:06:57;8.50;;;5.10;;
81651;SDS011;71061;55.714;37.794;2023-09-12T12:09:23;10.80;;;5.75;;
81651;SDS011;71061;55.714;37.794;2023-09-12T12:11:49;9.70;;;4.68;;
81651;SDS011;71061;55.714;37.794;2023-09-12T12:14:15;9.00;;;4.53;;
81651;SDS011;71061;55.714;37.794;2023-09-12T12:16:43;9.60;;;4.80;;
81651;SDS011;71061;55.714;37.794;2023-09-12T12:19:09;7.50;;;4.57;;
81651;SDS011;71061;55.714;37.794;2023-09-12T12:21:37;8.52;;;5.95;;
81651;SDS011;71061;55.714;37.794;2023-09-12T12:24:04;11.60;;;5.63;;
81651;SDS011;71061;55.714;37.794;2023-09-12T12:26:32;8.57;;;4.78;;
81651;SDS011;71061;55.714;37.794;2023-09-12T12:28:59;11.30;;;5.00;;
81651;SDS011;71061;55.714;37.794;2023-09-12T12:31:26;9.45;;;4.43;;
81651;SDS011;71061;55.714;37.794;2023-09-12T12:33:53;7.43;;;4.20;;
81651;SDS011;71061;55.714;37.794;2023-09-12T12:36:19;12.80;;;4.97;;
81651;SDS011;71061;55.714;37.794;2023-09-12T12:38:46;9.38;;;6.18;;
81651;SDS011;71061;55.714;37.794;2023-09-12T12:41:13;8.80;;;4.47;;
81651;SDS011;71061;55.714;37.794;2023-09-12T12:43:41;10.75;;;6.38;;
81651;SDS011;71061;55.714;37.794;2023-09-12T12:46:09;10.43;;;4.40;;
81651;SDS011;71061;55.714;37.794;2023-09-12T12:48:37;8.98;;;5.13;;
81651;SDS011;71061;55.714;37.794;2023-09-12T12:51:20;8.25;;;4.82;;
81651;SDS011;71061;55.714;37.794;2023-09-12T12:53:49;11.23;;;4.32;;
81651;SDS011;71061;55.714;37.794;2023-09-12T12:56:17;13.05;;;4.70;;
81651;SDS011;71061;55.714;37.794;2023-09-12T12:58:46;10.63;;;6.95;;
81651;SDS011;71061;55.714;37.794;2023-09-12T13:01:13;7.25;;;3.90;;
81651;SDS011;71061;55.714;37.794;2023-09-12T13:03:40;9.60;;;4.47;;
81651;SDS011;71061;55.714;37.794;2023-09-12T13:06:06;10.35;;;5.18;;
81651;SDS011;71061;55.714;37.794;2023-09-12T13:08:33;8.95;;;4.30;;
81651;SDS011;71061;55.714;37.794;2023-09-12T13:11:00;7.78;;;4.05;;
81651;SDS011;71061;55.714;37.794;2023-09-12T13:13:26;9.45;;;5.72;;
81651;SDS011;71061;55.714;37.794;2023-09-12T13:15:52;7.03;;;3.65;;
81651;SDS011;71061;55.714;37.794;2023-09-12T13:18:18;9.15;;;4.82;;
81651;SDS011;71061;55.714;37.794;2023-09-12T13:20:43;9.30;;;4.82;;
81651;SDS011;71061;55.714;37.794;2023-09-12T13:23:09;9.32;;;4.43;;
81651;SDS011;71061;55.714;37.794;2023-09-12T13:25:35;8.98;;;4.68;;
81651;SDS011;71061;55.714;37.794;2023-09-12T13:28:01;8.10;;;4.22;;
81651;SDS011;71061;55.714;37.794;2023-09-12T13:30:26;9.32;;;5.22;;
81651;SDS011;71061;55.714;37.794;2023-09-12T13:32:52;10.85;;;5.03;;
81651;SDS011;71061;55.714;37.794;2023-09-12T13:35:18;11.50;;;6.63;;
81651;SDS011;71061;55.714;37.794;2023-09-12T13:37:43;9.93;;;4.93;;
81651;SDS011;71061;55.714;37.794;2023-09-12T13:40:09;8.98;;;5.38;;
81651;SDS011;71061;55.714;37.794;2023-09-12T13:42:35;18.45;;;8.30;;
81651;SDS011;71061;55.714;37.794;2023-09-12T13:45:00;9.77;;;5.53;;
81651;SDS011;71061;55.714;37.794;2023-09-12T13:47:26;9.18;;;4.88;;
81651;SDS011;71061;55.714;37.794;2023-09-12T13:49:51;10.35;;;5.07;;
81651;SDS011;71061;55.714;37.794;2023-09-12T13:52:19;9.00;;;5.05;;
81651;SDS011;71061;55.714;37.794;2023-09-12T13:54:46;8.88;;;5.68;;
81651;SDS011;71061;55.714;37.794;2023-09-12T13:57:11;10.45;;;5.10;;
81651;SDS011;71061;55.714;37.794;2023-09-12T13:59:37;10.82;;;4.82;;
81651;SDS011;71061;55.714;37.794;2023-09-12T14:02:03;12.02;;;5.00;;
81651;SDS011;71061;55.714;37.794;2023-09-12T14:04:28;10.73;;;5.47;;
81651;SDS011;71061;55.714;37.794;2023-09-12T14:06:54;11.30;;;5.18;;
81651;SDS011;71061;55.714;37.794;2023-09-12T14:09:20;10.10;;;5.70;;
81651;SDS011;71061;55.714;37.794;2023-09-12T14:11:47;12.60;;;5.72;;
81651;SDS011;71061;55.714;37.794;2023-09-12T14:14:12;9.82;;;5.63;;
81651;SDS011;71061;55.714;37.794;2023-09-12T14:16:38;10.93;;;5.40;;
81651;SDS011;71061;55.714;37.794;2023-09-12T14:19:04;13.23;;;5.57;;
81651;SDS011;71061;55.714;37.794;2023-09-12T14:21:29;10.95;;;5.35;;
81651;SDS011;71061;55.714;37.794;2023-09-12T14:23:56;11.25;;;5.70;;
81651;SDS011;71061;55.714;37.794;2023-09-12T14:26:22;14.82;;;5.40;;
81651;SDS011;71061;55.714;37.794;2023-09-12T14:28:48;11.55;;;6.93;;
81651;SDS011;71061;55.714;37.794;2023-09-12T14:31:14;11.25;;;5.25;;